Time;durP1;ratioP1;P1;durP2;ratioP2;P2;SDS_P1;SDS_P2;PMS_P1;PMS_P2;Temp;Humidity;BMP_temperature;BMP_pressure;BME280_temperature;BME280_humidity;BME280_pressure;Samples;Min_cycle;Max_cycle;Signal;HPM_P1;HPM_P2
2021/03/17 00:00:21;;;;;;;15.93;5.85;;;1.00;99.90;;;;;;5060554;28;20724;-69
2021/03/17 00:03:06;;;;;;;13.98;5.88;;;0.90;99.90;;;;;;5062741;28;20052;-70
2021/03/17 00:05:52;;;;;;;20.08;6.25;;;0.90;99.90;;;;;;5062624;28;20095;-70
2021/03/17 00:08:36;;;;;;;12.73;6.50;;;0.80;99.90;;;;;;5061627;28;20101;-68
2021/03/17 00:11:20;;;;;;;26.65;7.38;;;0.90;99.90;;;;;;5062862;28;20542;-69
2021/03/17 00:14:04;;;;;;;29.88;8.70;;;1.00;99.90;;;;;;5061845;28;20507;-69
2021/03/17 00:16:49;;;;;;;26.98;8.77;;;1.30;99.90;;;;;;5061616;28;20106;-69
2021/03/17 00:19:33;;;;;;;24.85;9.27;;;1.40;99.90;;;;;;5061196;28;20485;-69
2021/03/17 00:22:17;;;;;;;25.85;9.77;;;1.50;99.90;;;;;;5062057;28;20470;-69
2021/03/17 00:25:03;;;;;;;38.15;10.02;;;1.60;99.90;;;;;;5061880;28;20054;-69
2021/03/17 00:27:47;;;;;;;;;;;1.60;99.90;;;;;;5062975;28;20699;-69
2021/03/17 00:30:34;;;;;;;22.52;8.50;;;1.50;99.90;;;;;;5061769;28;19924;-69
2021/03/17 00:33:19;;;;;;;20.23;8.25;;;1.40;99.90;;;;;;5061369;28;20047;-69
2021/03/17 00:36:03;;;;;;;34.05;8.68;;;1.40;99.90;;;;;;5061058;28;20128;-69
2021/03/17 00:38:47;;;;;;;22.38;7.90;;;1.40;99.90;;;;;;5060823;28;20043;-69
2021/03/17 00:41:31;;;;;;;22.05;7.75;;;1.30;99.90;;;;;;5061586;28;20094;-69
2021/03/17 00:44:15;;;;;;;27.88;8.20;;;1.20;99.90;;;;;;5061572;28;20213;-69
2021/03/17 00:47:00;;;;;;;29.05;7.60;;;1.30;99.90;;;;;;5059580;28;20102;-69
2021/03/17 00:49:29;;;;;;;22.67;7.68;;;1.30;99.90;;;;;;5043467;28;20059;-69
2021/03/17 00:51:57;;;;;;;15.05;6.90;;;1.10;99.90;;;;;;5060353;28;20033;-69
2021/03/17 00:54:40;;;;;;;19.55;7.43;;;1.00;99.90;;;;;;5061559;28;20047;-69
2021/03/17 00:57:24;;;;;;;17.83;7.13;;;0.90;99.90;;;;;;5042240;28;20527;-67
2021/03/17 00:59:50;;;;;;;15.23;6.82;;;0.90;99.90;;;;;;5039806;28;20066;-69
2021/03/17 01:02:15;;;;;;;14.88;6.35;;;0.90;99.90;;;;;;5060554;28;20056;-69
2021/03/17 01:04:41;;;;;;;17.40;6.32;;;0.80;99.90;;;;;;5061352;28;20400;-69
2021/03/17 01:07:12;;;;;;;22.35;7.00;;;0.70;99.90;;;;;;5060155;28;20052;-68
2021/03/17 01:09:38;;;;;;;19.42;7.15;;;0.60;99.90;;;;;;5061414;28;20045;-68
2021/03/17 01:12:04;;;;;;;13.77;6.70;;;0.60;99.90;;;;;;5061057;28;20032;-69
2021/03/17 01:14:30;;;;;;;23.20;7.47;;;0.50;99.90;;;;;;5042648;28;20040;-69
2021/03/17 01:16:56;;;;;;;18.23;7.30;;;0.50;99.90;;;;;;5060565;28;20043;-69
2021/03/17 01:19:21;;;;;;;20.45;7.60;;;0.50;99.90;;;;;;5059466;28;20123;-69
2021/03/17 01:21:47;;;;;;;14.35;6.70;;;0.50;99.90;;;;;;5060275;28;20032;-69
2021/03/17 01:24:13;;;;;;;22.52;7.07;;;0.50;99.90;;;;;;5060198;28;20078;-69
2021/03/17 01:26:38;;;;;;;16.17;7.22;;;0.50;99.90;;;;;;5059476;28;20032;-69
2021/03/17 01:29:04;;;;;;;17.42;7.03;;;0.50;99.90;;;;;;5041197;28;20043;-69
2021/03/17 01:31:30;;;;;;;15.55;6.93;;;0.50;99.90;;;;;;5060533;28;20043;-69
2021/03/17 01:33:55;;;;;;;15.48;7.20;;;0.40;99.90;;;;;;5059596;28;20040;-69
2021/03/17 01:36:21;;;;;;;19.65;7.72;;;0.40;99.90;;;;;;5059514;28;20036;-69
2021/03/17 01:38:46;;;;;;;21.83;7.00;;;0.40;99.90;;;;;;5059811;28;20040;-69
2021/03/17 01:41:12;;;;;;;30.63;7.88;;;0.40;99.90;;;;;;5059811;28;20064;-69
2021/03/17 01:43:38;;;;;;;12.90;6.20;;;0.50;99.90;;;;;;5060461;28;20028;-70
2021/03/17 01:46:04;;;;;;;19.00;7.30;;;0.50;99.90;;;;;;5059845;28;20040;-69
2021/03/17 01:48:29;;;;;;;14.75;7.18;;;0.40;99.90;;;;;;5061005;28;20047;-69
2021/03/17 01:50:57;;;;;;;17.65;6.97;;;0.40;99.90;;;;;;5059957;28;20039;-69
2021/03/17 01:53:36;;;;;;;13.27;6.63;;;0.40;99.90;;;;;;5060296;28;20028;-68
2021/03/17 01:56:03;;;;;;;16.25;6.95;;;0.50;99.90;;;;;;5059422;28;20034;-69
2021/03/17 01:58:31;;;;;;;19.25;6.53;;;0.40;99.90;;;;;;5059397;28;20028;-69
2021/03/17 02:00:57;;;;;;;19.15;6.32;;;0.40;99.90;;;;;;5059556;28;20044;-69
2021/03/17 02:03:24;;;;;;;14.32;6.47;;;0.30;99.90;;;;;;5060564;28;20107;-69
2021/03/17 02:05:51;;;;;;;15.13;5.80;;;0.20;99.90;;;;;;5059989;28;20063;-69
2021/03/17 02:08:21;;;;;;;12.43;5.55;;;0.20;99.90;;;;;;5059389;28;20024;-68
2021/03/17 02:10:47;;;;;;;12.35;6.20;;;0.10;99.90;;;;;;5059679;28;20534;-69
2021/03/17 02:13:48;;;;;;;14.55;4.90;;;0.10;99.90;;;;;;5041382;28;20036;-69
2021/03/17 02:16:16;;;;;;;11.57;4.63;;;0.00;99.90;;;;;;5058451;28;20028;-68
2021/03/17 02:18:56;;;;;;;14.30;4.70;;;0.00;99.90;;;;;;5060155;28;20079;-69
2021/03/17 02:21:53;;;;;;;13.13;4.05;;;0.10;99.90;;;;;;5059590;28;20024;-69
2021/03/17 02:24:56;;;;;;;16.75;4.20;;;0.00;99.90;;;;;;5060031;28;20119;-69
2021/03/17 02:28:08;;;;;;;9.50;4.38;;;0.00;99.90;;;;;;5059634;28;20641;-69
2021/03/17 02:30:58;;;;;;;14.40;3.92;;;0.00;99.90;;;;;;5059688;28;20060;-69
2021/03/17 02:33:39;;;;;;;15.35;3.67;;;0.00;99.90;;;;;;5041459;28;20032;-69
2021/03/17 02:36:14;;;;;;;12.15;4.10;;;0.20;99.90;;;;;;5059471;28;20068;-69
2021/03/17 02:38:46;;;;;;;19.10;4.50;;;0.20;99.90;;;;;;5060186;28;20062;-69
2021/03/17 02:41:18;;;;;;;19.10;4.10;;;0.10;99.90;;;;;;5059934;28;20381;-69
2021/03/17 02:43:46;;;;;;;18.15;4.00;;;0.10;99.90;;;;;;5043604;28;20032;-70
2021/03/17 02:46:15;;;;;;;22.02;3.72;;;0.00;99.90;;;;;;5058463;28;20638;-69
2021/03/17 02:48:46;;;;;;;21.77;4.30;;;0.20;99.90;;;;;;5059028;28;20518;-69
2021/03/17 02:51:23;;;;;;;26.30;4.60;;;0.30;99.90;;;;;;5058127;28;20538;-69
2021/03/17 02:53:50;;;;;;;13.38;3.85;;;0.40;99.90;;;;;;5057988;28;20028;-69
2021/03/17 02:56:17;;;;;;;15.98;4.38;;;0.40;99.90;;;;;;5040319;28;20043;-69
2021/03/17 02:58:45;;;;;;;10.27;3.30;;;0.30;99.90;;;;;;5057968;28;20067;-69
2021/03/17 03:01:14;;;;;;;23.25;4.13;;;0.20;99.90;;;;;;5040823;28;20114;-69
2021/03/17 03:03:41;;;;;;;11.38;3.20;;;0.20;99.90;;;;;;5040678;28;20037;-69
2021/03/17 03:06:09;;;;;;;13.23;3.42;;;0.30;99.90;;;;;;5057650;28;20033;-69
2021/03/17 03:08:37;;;;;;;17.20;3.35;;;0.40;99.90;;;;;;5058381;28;20138;-69
2021/03/17 03:11:05;;;;;;;12.55;2.88;;;0.30;99.90;;;;;;5058640;28;20706;-69
2021/03/17 03:13:33;;;;;;;10.75;3.22;;;0.30;99.90;;;;;;5057997;28;20215;-69
2021/03/17 03:16:00;;;;;;;10.32;3.13;;;0.20;99.90;;;;;;5058452;28;20024;-69
2021/03/17 03:18:27;;;;;;;16.05;3.28;;;0.30;99.90;;;;;;5058505;28;20063;-69
2021/03/17 03:20:55;;;;;;;12.25;2.85;;;0.40;99.90;;;;;;5039979;28;20100;-70
2021/03/17 03:23:24;;;;;;;11.60;3.05;;;0.50;99.90;;;;;;5058767;28;20149;-69
2021/03/17 03:25:51;;;;;;;10.23;3.08;;;0.60;99.90;;;;;;5058703;28;20040;-69
2021/03/17 03:28:20;;;;;;;16.73;2.85;;;0.60;99.90;;;;;;5057948;28;20112;-69
2021/03/17 03:30:48;;;;;;;10.55;2.60;;;0.70;99.90;;;;;;5039096;28;20044;-70
2021/03/17 03:33:14;;;;;;;7.32;2.40;;;0.70;99.90;;;;;;5058328;28;20052;-69
2021/03/17 03:35:42;;;;;;;7.53;2.70;;;0.80;99.90;;;;;;5057875;28;20039;-69
2021/03/17 03:38:09;;;;;;;11.38;2.92;;;0.90;99.90;;;;;;5039497;28;20117;-69
2021/03/17 03:40:36;;;;;;;12.63;2.90;;;0.90;99.90;;;;;;5058403;28;20511;-69
2021/03/17 03:43:03;;;;;;;14.52;2.42;;;1.00;99.90;;;;;;5057462;28;20028;-69
2021/03/17 03:45:29;;;;;;;11.32;2.33;;;1.00;99.90;;;;;;5058418;28;20788;-70
2021/03/17 03:47:56;;;;;;;12.30;3.03;;;1.10;99.90;;;;;;5057185;28;20040;-70
2021/03/17 03:50:23;;;;;;;13.57;2.10;;;1.10;99.90;;;;;;5057811;28;20067;-69
2021/03/17 03:53:15;;;;;;;19.13;2.97;;;1.20;99.90;;;;;;5056085;28;20059;-69
2021/03/17 03:55:53;;;;;;;16.45;2.42;;;1.40;99.90;;;;;;5057486;28;20029;-69
2021/03/17 03:58:33;;;;;;;13.23;2.40;;;1.40;99.90;;;;;;5056921;28;20036;-69
2021/03/17 04:01:18;;;;;;;15.73;2.75;;;1.50;99.90;;;;;;5057202;28;20075;-69
2021/03/17 04:03:50;;;;;;;21.00;2.53;;;1.50;99.90;;;;;;5057241;28;20043;-69
2021/03/17 04:06:16;;;;;;;8.38;2.47;;;1.50;99.90;;;;;;5056911;28;20041;-69
2021/03/17 04:08:44;;;;;;;11.18;2.40;;;1.50;99.90;;;;;;5057327;28;20137;-69
2021/03/17 04:11:12;;;;;;;20.40;2.80;;;1.40;99.90;;;;;;5055894;28;20048;-69
2021/03/17 04:13:40;;;;;;;16.98;2.53;;;1.50;99.90;;;;;;5057383;28;20396;-69
2021/03/17 04:16:06;;;;;;;15.07;2.63;;;1.50;99.90;;;;;;5038946;28;20221;-64
2021/03/17 04:18:41;;;;;;;13.50;2.95;;;1.50;99.90;;;;;;5056037;28;20039;-64
2021/03/17 04:21:16;;;;;;;11.50;2.20;;;1.50;99.90;;;;;;5057189;28;20647;-64
2021/03/17 04:23:43;;;;;;;15.77;2.50;;;1.50;99.90;;;;;;5057338;28;20152;-64
2021/03/17 04:26:11;;;;;;;8.75;2.08;;;1.50;99.90;;;;;;5056460;28;20144;-64
2021/03/17 04:28:39;;;;;;;13.43;2.63;;;1.50;99.90;;;;;;5053910;28;20289;-64
2021/03/17 04:31:06;;;;;;;6.95;2.35;;;1.60;99.90;;;;;;5051108;28;20041;-64
2021/03/17 04:33:33;;;;;;;15.40;2.75;;;1.60;99.90;;;;;;5039722;28;20127;-64
2021/03/17 04:36:00;;;;;;;18.17;2.70;;;1.60;99.90;;;;;;5056186;28;20241;-64
2021/03/17 04:38:28;;;;;;;13.48;2.90;;;1.60;99.90;;;;;;5056723;28;20032;-64
2021/03/17 04:40:54;;;;;;;9.90;2.25;;;1.50;99.90;;;;;;5057259;28;20024;-65
2021/03/17 04:43:21;;;;;;;9.00;1.88;;;1.40;99.90;;;;;;5056820;28;20046;-64
2021/03/17 04:45:48;;;;;;;18.92;2.65;;;1.30;99.90;;;;;;5048599;28;20106;-64
2021/03/17 04:48:13;;;;;;;10.30;2.40;;;1.20;99.90;;;;;;5055295;28;20048;-64
2021/03/17 04:50:41;;;;;;;12.52;2.28;;;1.10;99.90;;;;;;5056370;28;20028;-64
2021/03/17 04:53:11;;;;;;;10.63;2.28;;;1.20;99.90;;;;;;5038659;28;20032;-64
2021/03/17 04:55:37;;;;;;;14.93;2.60;;;1.10;99.90;;;;;;5038246;28;20050;-64
2021/03/17 04:58:03;;;;;;;12.48;2.70;;;1.20;99.90;;;;;;5055820;28;20035;-64
2021/03/17 05:00:30;;;;;;;14.38;3.58;;;1.20;99.90;;;;;;5038416;28;20496;-64
2021/03/17 05:03:00;;;;;;;20.83;3.85;;;1.30;99.90;;;;;;5055324;28;20056;-64
2021/03/17 05:05:28;;;;;;;18.33;2.92;;;1.30;99.90;;;;;;5053399;28;20572;-64
2021/03/17 05:07:55;;;;;;;12.55;2.83;;;1.50;99.90;;;;;;5056416;28;20826;-64
2021/03/17 05:10:24;;;;;;;12.02;3.00;;;1.50;99.90;;;;;;5054167;28;20766;-65
2021/03/17 05:12:50;;;;;;;16.27;3.00;;;1.50;99.90;;;;;;5056461;28;20032;-65
2021/03/17 05:15:17;;;;;;;9.88;2.63;;;1.50;99.90;;;;;;5037676;28;20055;-64
2021/03/17 05:17:47;;;;;;;10.70;2.38;;;1.50;99.90;;;;;;5056908;28;20032;-64
2021/03/17 05:20:16;;;;;;;11.02;3.05;;;1.50;99.90;;;;;;5056249;28;20039;-64
2021/03/17 05:22:43;;;;;;;13.38;3.03;;;1.60;99.90;;;;;;5055331;28;20032;-65
2021/03/17 05:25:10;;;;;;;14.85;2.50;;;1.60;99.90;;;;;;5054738;28;20083;-64
2021/03/17 05:27:37;;;;;;;16.55;2.72;;;1.70;99.90;;;;;;5038069;28;20886;-64
2021/03/17 05:30:08;;;;;;;9.80;3.00;;;1.70;99.90;;;;;;5038164;28;20059;-64
2021/03/17 05:32:34;;;;;;;20.67;2.95;;;1.70;99.90;;;;;;5056478;28;20033;-64
2021/03/17 05:35:06;;;;;;;8.43;2.55;;;1.80;99.90;;;;;;5046989;28;20090;-64
2021/03/17 05:37:32;;;;;;;6.47;2.67;;;1.80;99.90;;;;;;5035716;28;20124;-64
2021/03/17 05:39:58;;;;;;;10.75;2.60;;;1.90;99.90;;;;;;5037663;28;20112;-64
2021/03/17 05:42:25;;;;;;;9.00;2.80;;;1.90;99.90;;;;;;5055897;28;20021;-64
2021/03/17 05:44:52;;;;;;;13.95;2.58;;;1.90;99.90;;;;;;5055690;28;20738;-64
2021/03/17 05:47:20;;;;;;;12.38;3.00;;;1.90;99.90;;;;;;5055906;28;20460;-64
2021/03/17 05:49:46;;;;;;;12.45;3.33;;;2.00;99.90;;;;;;5053378;28;20710;-65
2021/03/17 05:52:14;;;;;;;9.77;3.10;;;2.00;99.90;;;;;;5056363;28;20032;-65
2021/03/17 05:54:41;;;;;;;15.63;4.30;;;2.00;99.90;;;;;;5056178;28;20066;-64
2021/03/17 05:57:06;;;;;;;9.98;3.50;;;2.10;99.90;;;;;;5051116;28;20041;-64
2021/03/17 05:59:32;;;;;;;15.93;3.65;;;2.10;99.90;;;;;;5054498;28;20032;-65
2021/03/17 06:01:59;;;;;;;20.20;3.60;;;2.20;99.90;;;;;;5050434;28;20060;-64
2021/03/17 06:04:28;;;;;;;12.95;3.35;;;2.20;99.90;;;;;;5053250;28;20055;-64
2021/03/17 06:07:00;;;;;;;14.93;4.82;;;2.20;99.90;;;;;;5054133;28;20127;-64
2021/03/17 06:09:27;;;;;;;19.60;4.20;;;2.30;99.90;;;;;;5036746;28;20033;-64
2021/03/17 06:11:55;;;;;;;14.05;5.05;;;2.30;99.90;;;;;;5037168;28;20040;-65
2021/03/17 06:14:24;;;;;;;16.70;4.47;;;2.40;99.90;;;;;;5046366;28;20043;-64
2021/03/17 06:16:57;;;;;;;21.42;5.38;;;2.40;99.90;;;;;;5056791;28;20029;-64
2021/03/17 06:19:27;;;;;;;13.55;4.03;;;2.50;99.90;;;;;;5058576;28;20040;-64
2021/03/17 06:21:54;;;;;;;11.02;4.13;;;2.60;99.90;;;;;;5059474;28;20050;-64
2021/03/17 06:24:20;;;;;;;16.05;4.28;;;2.50;99.90;;;;;;5056259;28;20032;-64
2021/03/17 06:26:47;;;;;;;17.70;4.25;;;2.60;99.90;;;;;;5052968;28;20040;-64
2021/03/17 06:29:14;;;;;;;12.13;3.95;;;2.80;99.90;;;;;;5058610;28;20036;-64
2021/03/17 06:31:41;;;;;;;15.07;4.45;;;2.80;99.90;;;;;;5059560;28;20035;-66
2021/03/17 06:34:06;;;;;;;20.73;5.63;;;2.80;99.90;;;;;;5058901;28;20032;-64
2021/03/17 06:36:32;;;;;;;16.63;4.72;;;2.90;99.90;;;;;;5053298;28;20397;-65
2021/03/17 06:39:08;;;;;;;22.00;4.55;;;2.90;99.90;;;;;;5050645;28;20202;-64
2021/03/17 06:41:52;;;;;;;23.48;5.43;;;3.00;99.90;;;;;;5040576;28;20032;-65
2021/03/17 06:44:23;;;;;;;16.80;5.15;;;2.90;99.90;;;;;;5054399;28;20032;-65
2021/03/17 06:47:17;;;;;;;13.90;5.90;;;2.90;99.90;;;;;;5058703;28;20135;-67
2021/03/17 06:49:46;;;;;;;23.60;6.30;;;3.00;99.90;;;;;;5052093;28;20039;-64
2021/03/17 06:52:31;;;;;;;17.75;5.82;;;3.10;99.90;;;;;;5049863;28;20045;-64
2021/03/17 06:55:07;;;;;;;32.40;6.25;;;3.10;99.90;;;;;;5057545;28;20039;-64
2021/03/17 06:57:33;;;;;;;17.98;6.28;;;3.30;99.90;;;;;;5058160;28;20143;-64
2021/03/17 07:00:25;;;;;;;19.73;6.30;;;3.30;99.90;;;;;;5058842;28;20028;-65
2021/03/17 07:03:06;;;;;;;24.35;7.00;;;3.30;99.90;;;;;;5056043;28;20501;-65
2021/03/17 07:05:45;;;;;;;25.73;7.13;;;3.50;99.90;;;;;;5058895;28;20048;-64
2021/03/17 07:08:26;;;;;;;29.63;7.53;;;3.60;99.90;;;;;;5054067;28;20045;-64
2021/03/17 07:10:56;;;;;;;23.70;7.85;;;3.90;99.90;;;;;;5058078;28;20763;-64
2021/03/17 07:13:25;;;;;;;22.88;8.45;;;4.10;99.90;;;;;;5057951;28;20028;-65
2021/03/17 07:15:56;;;;;;;23.00;7.68;;;4.10;99.90;;;;;;5058313;28;20050;-65
2021/03/17 07:18:26;;;;;;;29.88;7.57;;;4.20;99.90;;;;;;5038764;28;20029;-65
2021/03/17 07:21:04;;;;;;;20.23;7.47;;;4.30;99.90;;;;;;5058716;28;20037;-65
2021/03/17 07:23:44;;;;;;;28.10;7.53;;;4.20;99.90;;;;;;5040387;28;20449;-65
2021/03/17 07:26:12;;;;;;;21.55;7.80;;;4.30;99.90;;;;;;5053348;28;20043;-65
2021/03/17 07:28:47;;;;;;;18.65;7.75;;;4.40;99.90;;;;;;5039448;28;20070;-65
2021/03/17 07:31:28;;;;;;;25.70;7.50;;;4.60;99.90;;;;;;5057590;28;20040;-65
2021/03/17 07:33:55;;;;;;;21.73;7.80;;;4.70;99.90;;;;;;5051042;28;20032;-65
2021/03/17 07:36:35;;;;;;;20.92;6.95;;;4.80;99.90;;;;;;5057275;28;20107;-65
2021/03/17 07:39:06;;;;;;;17.52;7.80;;;4.80;99.90;;;;;;5054711;28;20114;-66
2021/03/17 07:41:32;;;;;;;17.98;7.00;;;4.80;99.90;;;;;;5056692;28;20035;-65
2021/03/17 07:43:59;;;;;;;30.15;9.40;;;4.90;99.90;;;;;;5057322;28;20029;-65
2021/03/17 07:46:25;;;;;;;23.60;8.05;;;4.90;99.90;;;;;;5020135;28;20455;-72
2021/03/17 07:48:52;;;;;;;27.77;10.07;;;5.00;99.90;;;;;;5050130;28;20069;-65
2021/03/17 07:51:19;;;;;;;24.70;9.18;;;4.80;99.90;;;;;;5038532;28;20044;-65
2021/03/17 07:53:52;;;;;;;24.42;8.18;;;4.80;99.90;;;;;;5039338;28;20756;-64
2021/03/17 07:56:25;;;;;;;22.95;7.97;;;4.90;99.90;;;;;;5054257;28;20115;-64
2021/03/17 07:58:52;;;;;;;21.05;8.00;;;4.90;99.90;;;;;;5056825;28;20028;-64
2021/03/17 08:01:20;;;;;;;20.88;7.13;;;5.00;99.90;;;;;;5057020;28;20901;-64
2021/03/17 08:03:48;;;;;;;25.35;8.43;;;5.00;99.90;;;;;;5057780;28;20040;-64
2021/03/17 08:06:16;;;;;;;26.67;8.75;;;4.80;99.90;;;;;;5039062;28;20443;-64
2021/03/17 08:08:43;;;;;;;23.42;7.72;;;4.80;99.90;;;;;;5057647;28;20021;-65
2021/03/17 08:11:12;;;;;;;31.45;9.18;;;4.70;99.90;;;;;;5057029;28;20036;-64
2021/03/17 08:13:39;;;;;;;18.83;7.80;;;4.70;99.90;;;;;;5057383;28;20082;-64
2021/03/17 08:16:05;;;;;;;19.02;7.47;;;4.90;99.90;;;;;;5051735;28;20111;-65
2021/03/17 08:18:34;;;;;;;20.05;8.52;;;4.90;99.90;;;;;;5056478;28;20036;-64
2021/03/17 08:21:01;;;;;;;18.58;8.02;;;5.10;99.90;;;;;;5056677;28;20035;-64
2021/03/17 08:23:48;;;;;;;21.80;8.73;;;5.10;99.90;;;;;;5038283;28;20036;-64
2021/03/17 08:26:34;;;;;;;21.73;9.27;;;5.20;99.90;;;;;;5056892;28;20028;-64
2021/03/17 08:28:59;;;;;;;24.17;8.73;;;5.10;99.90;;;;;;5040580;28;20047;-64
2021/03/17 08:31:37;;;;;;;20.45;8.57;;;4.80;99.90;;;;;;5056870;28;20028;-68
2021/03/17 08:34:18;;;;;;;22.85;8.40;;;4.90;99.90;;;;;;5054790;28;20060;-68
2021/03/17 08:36:45;;;;;;;20.85;8.27;;;5.00;99.90;;;;;;5054508;28;20029;-68
2021/03/17 08:39:11;;;;;;;20.17;8.25;;;4.90;99.90;;;;;;5044166;28;20071;-67
2021/03/17 08:41:42;;;;;;;21.83;8.10;;;5.00;99.90;;;;;;5033858;28;20029;-67
2021/03/17 08:44:12;;;;;;;20.20;8.95;;;5.00;99.90;;;;;;5039852;28;20028;-67
2021/03/17 08:46:39;;;;;;;27.20;10.88;;;5.00;99.90;;;;;;5047681;28;20039;-67
2021/03/17 08:49:10;;;;;;;82.90;27.75;;;4.90;99.90;;;;;;5023019;28;20120;-68
2021/03/17 08:51:47;;;;;;;76.13;26.10;;;5.00;99.90;;;;;;5056042;28;20032;-68
2021/03/17 08:54:34;;;;;;;24.63;11.60;;;5.00;99.90;;;;;;5039732;28;20036;-68
2021/03/17 08:57:09;;;;;;;24.33;10.02;;;5.00;99.90;;;;;;5052054;28;20036;-70
2021/03/17 08:59:38;;;;;;;;;;;4.80;99.90;;;;;;5043494;28;20067;-69
2021/03/17 09:02:04;;;;;;;18.70;7.80;;;5.00;99.90;;;;;;5057245;28;19919;-73
2021/03/17 09:04:47;;;;;;;20.40;8.25;;;5.20;99.90;;;;;;5050935;28;20408;-69
2021/03/17 09:07:13;;;;;;;19.50;7.97;;;5.40;99.90;;;;;;5035741;28;20213;-72
2021/03/17 09:10:08;;;;;;;14.43;7.22;;;5.50;99.90;;;;;;5037732;28;20299;-73
2021/03/17 09:12:33;;;;;;;17.42;7.30;;;5.60;99.90;;;;;;5050485;28;20029;-71
2021/03/17 09:15:14;;;;;;;18.23;8.05;;;5.70;99.90;;;;;;5035012;28;20130;-71
2021/03/17 09:17:49;;;;;;;15.50;6.65;;;5.60;99.90;;;;;;5037209;28;20515;-70
2021/03/17 09:20:24;;;;;;;14.03;7.30;;;5.40;99.90;;;;;;5047676;28;20075;-71
2021/03/17 09:23:00;;;;;;;15.00;7.07;;;5.40;99.90;;;;;;5035712;28;20036;-71
2021/03/17 09:25:29;;;;;;;18.60;6.57;;;5.50;99.90;;;;;;5037646;28;20042;-71
2021/03/17 09:28:04;;;;;;;10.93;6.07;;;5.40;99.90;;;;;;5053135;28;20036;-70
2021/03/17 09:30:51;;;;;;;16.05;6.68;;;5.60;99.90;;;;;;5037704;28;20024;-71
2021/03/17 09:33:22;;;;;;;14.32;6.05;;;5.90;99.90;;;;;;5052644;28;20496;-70
2021/03/17 09:35:55;;;;;;;18.30;6.72;;;5.70;99.90;;;;;;5031965;28;20021;-70
2021/03/17 09:38:23;;;;;;;16.48;7.13;;;5.90;99.90;;;;;;5037781;28;20155;-70
2021/03/17 09:40:59;;;;;;;11.98;6.38;;;5.80;99.90;;;;;;5056862;28;20171;-69
2021/03/17 09:43:33;;;;;;;12.45;5.97;;;6.00;99.90;;;;;;5056687;28;20029;-66
2021/03/17 09:46:01;;;;;;;15.55;6.40;;;6.20;99.90;;;;;;5037396;28;20040;-66
2021/03/17 09:48:27;;;;;;;13.38;5.90;;;6.20;99.90;;;;;;5055428;28;20062;-66
2021/03/17 09:50:59;;;;;;;12.50;5.93;;;6.30;99.90;;;;;;5057114;28;20036;-66
2021/03/17 09:53:25;;;;;;;14.65;6.47;;;6.40;99.90;;;;;;5041420;28;20032;-66
2021/03/17 09:55:52;;;;;;;12.20;5.60;;;6.50;99.90;;;;;;5024733;28;20059;-66
2021/03/17 09:58:17;;;;;;;16.77;5.97;;;6.50;99.90;;;;;;5041860;28;20032;-66
2021/03/17 10:00:47;;;;;;;14.55;6.18;;;6.40;99.90;;;;;;5052926;28;20028;-66
2021/03/17 10:03:13;;;;;;;13.50;6.30;;;6.30;99.90;;;;;;5055676;28;20036;-66
2021/03/17 10:05:39;;;;;;;14.52;6.43;;;6.20;99.90;;;;;;5060478;28;20088;-70
2021/03/17 10:08:09;;;;;;;11.48;5.70;;;6.20;99.90;;;;;;5060139;28;20866;-68
2021/03/17 10:10:36;;;;;;;12.10;6.03;;;6.30;99.90;;;;;;5060768;28;20040;-71
2021/03/17 10:13:02;;;;;;;12.00;6.03;;;6.40;99.90;;;;;;5048352;28;20385;-72
2021/03/17 10:15:28;;;;;;;15.82;6.22;;;6.50;99.90;;;;;;5059573;28;20029;-71
2021/03/17 10:17:54;;;;;;;20.20;9.60;;;6.60;99.90;;;;;;5059211;28;20727;-70
2021/03/17 10:20:23;;;;;;;15.82;7.28;;;6.90;99.90;;;;;;5048463;28;20040;-69
2021/03/17 10:22:51;;;;;;;13.00;6.15;;;6.80;99.90;;;;;;5045566;28;20532;-71
2021/03/17 10:25:22;;;;;;;12.52;6.15;;;6.90;99.90;;;;;;5050247;28;20028;-66
2021/03/17 10:28:09;;;;;;;10.07;5.30;;;6.90;99.90;;;;;;5051980;28;20025;-66
2021/03/17 10:30:37;;;;;;;11.27;5.57;;;7.10;99.90;;;;;;5048555;28;20491;-66
2021/03/17 10:33:10;;;;;;;14.90;7.20;;;7.20;99.90;;;;;;5046257;28;20060;-66
2021/03/17 10:35:36;;;;;;;19.02;6.15;;;7.00;99.90;;;;;;5051258;28;20038;-66
2021/03/17 10:38:02;;;;;;;12.85;5.82;;;7.10;99.90;;;;;;5036012;28;20523;-66
2021/03/17 10:40:30;;;;;;;10.65;5.63;;;7.10;99.90;;;;;;5034243;28;20476;-66
2021/03/17 10:42:58;;;;;;;8.85;5.13;;;7.30;99.90;;;;;;5041232;28;20029;-66
2021/03/17 10:45:46;;;;;;;8.00;4.28;;;7.30;99.90;;;;;;5037021;28;20036;-66
2021/03/17 10:48:16;;;;;;;9.43;4.70;;;7.30;99.90;;;;;;5043894;28;20029;-66
2021/03/17 10:50:42;;;;;;;9.05;4.70;;;7.40;99.90;;;;;;5046378;28;20484;-66
2021/03/17 10:53:26;;;;;;;19.63;7.57;;;7.30;99.90;;;;;;5030525;28;20032;-66
2021/03/17 10:55:54;;;;;;;8.35;3.67;;;7.30;99.90;;;;;;5036018;28;20040;-65
2021/03/17 10:58:26;;;;;;;12.45;4.10;;;7.60;99.90;;;;;;5053550;28;20082;-65
2021/03/17 11:01:00;;;;;;;10.10;4.85;;;7.90;99.90;;;;;;5037038;28;20037;-70
2021/03/17 11:03:34;;;;;;;6.50;4.38;;;8.50;99.90;;;;;;5057932;28;20043;-71
2021/03/17 11:06:20;;;;;;;9.97;4.93;;;8.20;99.90;;;;;;5037107;28;20802;-71
2021/03/17 11:09:02;;;;;;;;;;;7.90;99.90;;;;;;5053499;28;20045;-71
2021/03/17 11:11:29;;;;;;;10.90;5.43;;;7.50;99.90;;;;;;5058847;28;19955;-71
2021/03/17 11:13:54;;;;;;;10.55;6.05;;;7.60;99.90;;;;;;5037340;28;20033;-72
2021/03/17 11:16:20;;;;;;;8.75;5.47;;;7.70;99.90;;;;;;5057986;28;20483;-72
2021/03/17 11:18:48;;;;;;;9.73;4.65;;;7.90;99.90;;;;;;5058524;28;20071;-72
2021/03/17 11:21:22;;;;;;;11.77;4.30;;;8.10;99.90;;;;;;5040187;28;20135;-72
2021/03/17 11:23:48;;;;;;;7.15;4.13;;;8.20;99.90;;;;;;5057233;28;20036;-70
2021/03/17 11:26:25;;;;;;;7.72;4.22;;;7.90;99.90;;;;;;5053614;28;20051;-70
2021/03/17 11:28:53;;;;;;;9.15;3.88;;;7.60;99.90;;;;;;5055178;28;20155;-71
2021/03/17 11:31:35;;;;;;;9.05;3.85;;;7.40;99.90;;;;;;5041158;28;20035;-70
2021/03/17 11:34:02;;;;;;;7.63;3.53;;;7.40;99.90;;;;;;5052350;28;20113;-71
2021/03/17 11:36:29;;;;;;;5.38;3.03;;;7.50;99.90;;;;;;5054794;28;20044;-70
2021/03/17 11:39:00;;;;;;;7.05;3.33;;;7.60;99.90;;;;;;5058370;28;20032;-70
2021/03/17 11:41:27;;;;;;;5.53;3.25;;;7.70;99.90;;;;;;5057965;28;20037;-70
2021/03/17 11:43:53;;;;;;;5.47;3.00;;;7.80;99.90;;;;;;5039586;28;20499;-69
2021/03/17 11:46:19;;;;;;;5.80;2.63;;;8.00;99.90;;;;;;5039604;28;20033;-69
2021/03/17 11:48:46;;;;;;;10.02;3.90;;;8.10;99.90;;;;;;5055146;28;20828;-70
2021/03/17 11:51:12;;;;;;;5.95;3.42;;;8.00;99.90;;;;;;5053126;28;20035;-70
2021/03/17 11:53:38;;;;;;;6.00;3.10;;;8.20;99.90;;;;;;5056900;28;20037;-71
2021/03/17 11:56:06;;;;;;;5.38;3.25;;;8.10;99.90;;;;;;5056650;28;20032;-72
2021/03/17 11:58:36;;;;;;;8.05;3.97;;;8.20;99.90;;;;;;5038654;28;20644;-70
2021/03/17 12:01:03;;;;;;;5.00;3.25;;;8.30;99.90;;;;;;5051069;28;20065;-69
2021/03/17 12:03:29;;;;;;;9.43;5.03;;;8.50;99.90;;;;;;5036252;28;20829;-70
2021/03/17 12:05:55;;;;;;;5.78;3.85;;;8.30;99.90;;;;;;5037880;28;20040;-70
2021/03/17 12:08:21;;;;;;;6.82;3.10;;;8.50;99.90;;;;;;5039082;28;20683;-71
2021/03/17 12:10:51;;;;;;;5.38;3.45;;;8.50;99.90;;;;;;5039247;28;20043;-70
2021/03/17 12:13:17;;;;;;;9.13;4.32;;;8.40;99.90;;;;;;5056849;28;20040;-70
2021/03/17 12:15:42;;;;;;;6.35;3.90;;;8.60;99.90;;;;;;5047383;28;20059;-71
2021/03/17 12:18:08;;;;;;;6.75;4.40;;;8.60;99.90;;;;;;5057013;28;20020;-70
2021/03/17 12:20:34;;;;;;;9.15;4.57;;;8.70;99.90;;;;;;5038164;28;20456;-70
2021/03/17 12:23:01;;;;;;;11.95;4.13;;;8.80;99.90;;;;;;5057165;28;20573;-70
2021/03/17 12:25:27;;;;;;;6.30;3.95;;;8.30;99.90;;;;;;5056194;28;20084;-70
2021/03/17 12:27:53;;;;;;;6.88;3.55;;;8.50;99.90;;;;;;5050099;28;20062;-70
2021/03/17 12:30:20;;;;;;;8.20;3.58;;;8.70;99.90;;;;;;5039264;28;20032;-69
2021/03/17 12:32:47;;;;;;;4.80;3.33;;;8.70;99.90;;;;;;5051641;28;20182;-70
2021/03/17 12:35:15;;;;;;;7.97;4.55;;;9.40;99.90;;;;;;5056141;28;20051;-70
2021/03/17 12:37:42;;;;;;;7.38;3.80;;;9.40;99.90;;;;;;5036378;28;20043;-70
2021/03/17 12:40:11;;;;;;;6.85;3.20;;;9.00;99.90;;;;;;5056344;28;20477;-70
2021/03/17 12:42:36;;;;;;;5.13;3.13;;;8.80;99.90;;;;;;5055150;28;20814;-70
2021/03/17 12:45:06;;;;;;;6.70;3.95;;;8.50;99.90;;;;;;5032685;28;20033;-70
2021/03/17 12:47:32;;;;;;;5.03;2.90;;;8.50;99.90;;;;;;5037391;28;20036;-70
2021/03/17 12:49:58;;;;;;;3.85;2.65;;;8.90;99.90;;;;;;5054982;28;20124;-70
2021/03/17 12:52:23;;;;;;;3.88;2.15;;;9.50;99.90;;;;;;5055474;28;20033;-70
2021/03/17 12:54:49;;;;;;;4.18;2.28;;;10.10;98.80;;;;;;5037304;28;20029;-70
2021/03/17 12:57:15;;;;;;;3.35;2.10;;;10.70;98.90;;;;;;5055991;28;20774;-70
2021/03/17 12:59:41;;;;;;;4.20;2.30;;;10.50;99.10;;;;;;5055333;28;20029;-71
2021/03/17 13:02:07;;;;;;;3.40;2.30;;;10.80;97.70;;;;;;5056719;28;20551;-71
2021/03/17 13:04:33;;;;;;;3.28;2.47;;;10.20;97.10;;;;;;5053070;28;20059;-70
2021/03/17 13:06:59;;;;;;;3.97;2.47;;;9.90;98.60;;;;;;5055054;28;20035;-71
2021/03/17 13:09:25;;;;;;;5.07;2.70;;;9.70;99.10;;;;;;5056276;28;20370;-71